Time;durP1;ratioP1;P1;durP2;ratioP2;P2;SDS_P1;SDS_P2;PMS_P1;PMS_P2;Temp;Humidity;BMP_temperature;BMP_pressure;BME280_temperature;BME280_humidity;BME280_pressure;Samples;Min_cycle;Max_cycle;Signal;HPM_P1;HPM_P2
2021/03/04 00:00:13;;;;;;;61.87;32.83;;;4.80;86.60;;;;;;5095053;28;20040;-72
2021/03/04 00:02:39;;;;;;;65.67;33.03;;;4.90;86.70;;;;;;5095479;28;20040;-73
2021/03/04 00:05:06;;;;;;;67.77;33.83;;;4.90;86.80;;;;;;5077739;28;20125;-71
2021/03/04 00:07:32;;;;;;;67.83;35.50;;;4.90;86.80;;;;;;5077015;28;20131;-72
2021/03/04 00:09:58;;;;;;;64.80;35.50;;;4.90;86.60;;;;;;5094272;28;20123;-72
2021/03/04 00:12:24;;;;;;;65.60;34.40;;;4.90;86.50;;;;;;5093235;28;20066;-72
2021/03/04 00:14:49;;;;;;;65.93;35.17;;;4.80;86.60;;;;;;5093824;28;20032;-71
2021/03/04 00:17:15;;;;;;;61.40;33.83;;;4.80;86.60;;;;;;5093882;28;20495;-72
2021/03/04 00:19:40;;;;;;;61.23;34.03;;;4.80;86.50;;;;;;5074789;28;20039;-72
2021/03/04 00:22:06;;;;;;;66.27;34.93;;;4.80;86.50;;;;;;5091716;28;20545;-72
2021/03/04 00:24:32;;;;;;;62.73;34.80;;;4.70;86.60;;;;;;5074632;28;20029;-71
2021/03/04 00:26:58;;;;;;;56.83;31.67;;;4.70;86.30;;;;;;5074024;28;20125;-71
2021/03/04 00:29:24;;;;;;;65.47;35.37;;;4.60;86.70;;;;;;5074313;28;20131;-72
2021/03/04 00:31:49;;;;;;;62.87;33.47;;;4.60;86.60;;;;;;5092002;28;20063;-72
2021/03/04 00:34:15;;;;;;;62.40;33.17;;;4.60;86.50;;;;;;5091717;28;20036;-73
2021/03/04 00:36:41;;;;;;;65.13;34.40;;;4.50;86.50;;;;;;5074229;28;20032;-71
2021/03/04 00:39:08;;;;;;;64.70;35.70;;;4.40;87.00;;;;;;5073980;28;20035;-73
2021/03/04 00:41:35;;;;;;;58.33;31.80;;;4.40;86.80;;;;;;5073231;28;20074;-73
2021/03/04 00:44:05;;;;;;;58.80;32.17;;;4.40;87.10;;;;;;5073583;28;20078;-72
2021/03/04 00:46:32;;;;;;;53.58;29.20;;;4.40;87.30;;;;;;5091705;28;20028;-72
2021/03/04 00:48:58;;;;;;;50.70;29.63;;;4.30;86.80;;;;;;5073770;28;20064;-70
2021/03/04 00:51:24;;;;;;;49.47;28.10;;;4.30;86.90;;;;;;5090887;28;20431;-71
2021/03/04 00:53:50;;;;;;;46.30;26.90;;;4.20;87.20;;;;;;5073852;28;20024;-70
2021/03/04 00:56:15;;;;;;;44.63;26.07;;;4.20;87.10;;;;;;5073777;28;20073;-71
2021/03/04 00:58:42;;;;;;;39.53;22.90;;;4.20;87.30;;;;;;5091471;28;20506;-71
2021/03/04 01:01:08;;;;;;;40.80;23.07;;;4.10;87.10;;;;;;5091472;28;20040;-72
2021/03/04 01:03:33;;;;;;;34.83;20.40;;;4.10;87.10;;;;;;5091245;28;20404;-71
2021/03/04 01:05:59;;;;;;;34.07;20.23;;;4.00;87.10;;;;;;5091755;28;20032;-70
2021/03/04 01:08:25;;;;;;;38.17;21.53;;;4.00;86.80;;;;;;5093756;28;20803;-72
2021/03/04 01:10:51;;;;;;;36.23;19.07;;;3.90;87.70;;;;;;5074289;28;20126;-70
2021/03/04 01:13:17;;;;;;;33.63;18.57;;;3.90;87.80;;;;;;5091504;28;20101;-71
2021/03/04 01:15:42;;;;;;;31.27;17.07;;;3.90;87.30;;;;;;5073438;28;20140;-71
2021/03/04 01:18:08;;;;;;;32.20;18.10;;;3.80;87.50;;;;;;5091289;28;20478;-71
2021/03/04 01:20:34;;;;;;;31.83;16.83;;;3.80;87.50;;;;;;5073152;28;20058;-70
2021/03/04 01:23:00;;;;;;;33.33;17.93;;;3.80;87.50;;;;;;5072860;28;20043;-70
2021/03/04 01:25:26;;;;;;;30.50;16.57;;;3.70;87.50;;;;;;5091347;28;20541;-71
2021/03/04 01:27:52;;;;;;;31.23;16.80;;;3.60;87.40;;;;;;5073591;28;20032;-73
2021/03/04 01:30:25;;;;;;;29.87;16.37;;;3.60;88.10;;;;;;5090554;28;20044;-71
2021/03/04 01:32:50;;;;;;;29.13;16.07;;;3.60;88.60;;;;;;5091284;28;20606;-70
2021/03/04 01:35:16;;;;;;;27.30;15.37;;;3.70;88.70;;;;;;5090903;28;20123;-70
2021/03/04 01:37:42;;;;;;;29.20;15.63;;;3.70;89.00;;;;;;5091386;28;20032;-71
2021/03/04 01:40:10;;;;;;;26.23;14.00;;;3.80;89.00;;;;;;5073106;28;20415;-71
2021/03/04 01:42:36;;;;;;;21.73;12.53;;;3.80;88.50;;;;;;5072197;28;20051;-71
2021/03/04 01:45:04;;;;;;;24.53;13.43;;;3.90;88.50;;;;;;5091193;28;20078;-71
2021/03/04 01:47:29;;;;;;;22.87;12.17;;;3.90;88.40;;;;;;5090799;28;20127;-70
2021/03/04 01:49:55;;;;;;;20.93;11.13;;;3.90;88.50;;;;;;5090944;28;20123;-73
2021/03/04 01:52:21;;;;;;;19.87;10.57;;;4.00;88.40;;;;;;5090907;28;20081;-72
2021/03/04 01:54:47;;;;;;;16.27;9.10;;;4.00;88.50;;;;;;5090485;28;20043;-71
2021/03/04 01:57:13;;;;;;;16.27;8.60;;;3.90;88.30;;;;;;5075513;28;20040;-71
2021/03/04 01:59:40;;;;;;;17.47;8.87;;;3.90;88.10;;;;;;5094828;28;20066;-71
2021/03/04 02:02:06;;;;;;;16.90;9.10;;;3.90;88.10;;;;;;5076741;28;20488;-71
2021/03/04 02:04:32;;;;;;;16.77;8.67;;;3.80;88.20;;;;;;5095045;28;20124;-71
2021/03/04 02:07:08;;;;;;;19.10;9.27;;;3.80;88.40;;;;;;5094696;28;20032;-72
2021/03/04 02:09:34;;;;;;;16.47;8.30;;;3.80;88.40;;;;;;5095016;28;20032;-70
2021/03/04 02:12:27;;;;;;;17.20;8.60;;;3.80;88.40;;;;;;5094159;28;20480;-67
2021/03/04 02:14:58;;;;;;;16.87;8.63;;;3.80;88.60;;;;;;5077348;28;20066;-70
2021/03/04 02:17:29;;;;;;;16.40;8.43;;;3.80;88.50;;;;;;5095007;28;20036;-67
2021/03/04 02:19:57;;;;;;;16.30;8.52;;;3.80;88.30;;;;;;5076224;28;20040;-68
2021/03/04 02:22:48;;;;;;;15.77;7.77;;;3.80;88.60;;;;;;5076501;28;20141;-67
2021/03/04 02:25:27;;;;;;;16.17;7.97;;;3.80;88.20;;;;;;5094300;28;20501;-66
2021/03/04 02:27:55;;;;;;;14.57;7.20;;;3.80;88.40;;;;;;5094772;28;20492;-69
2021/03/04 02:30:27;;;;;;;14.33;7.50;;;3.80;88.30;;;;;;5076176;28;20040;-69
2021/03/04 02:32:58;;;;;;;14.83;8.10;;;3.80;88.30;;;;;;5076238;28;20040;-69
2021/03/04 02:35:30;;;;;;;;;;;3.80;88.50;;;;;;5094721;28;20063;-68
2021/03/04 02:37:59;;;;;;;16.20;7.57;;;3.80;88.70;;;;;;5076251;28;19912;-66
2021/03/04 02:40:27;;;;;;;15.90;8.17;;;3.80;88.20;;;;;;5093691;28;20495;-67
2021/03/04 02:42:53;;;;;;;16.07;8.33;;;3.80;88.40;;;;;;5107698;22;20040;-65
2021/03/04 02:45:23;;;;;;;17.83;8.30;;;3.80;88.60;;;;;;5093932;28;20032;-65
2021/03/04 02:47:49;;;;;;;20.93;10.13;;;3.80;88.60;;;;;;5075814;28;20034;-64
2021/03/04 02:50:15;;;;;;;16.63;8.63;;;3.80;88.60;;;;;;5075722;28;20062;-64
2021/03/04 02:52:43;;;;;;;16.80;9.07;;;3.70;88.50;;;;;;5075337;28;20100;-64
2021/03/04 02:55:09;;;;;;;17.60;9.37;;;3.80;89.20;;;;;;5076128;28;20051;-65
2021/03/04 02:57:39;;;;;;;18.67;9.83;;;3.80;89.00;;;;;;5093980;28;20074;-64
2021/03/04 03:00:09;;;;;;;16.00;7.87;;;3.80;88.60;;;;;;5093556;28;20047;-64
2021/03/04 03:02:36;;;;;;;16.90;8.95;;;3.80;88.80;;;;;;5093605;28;20115;-65
2021/03/04 03:05:05;;;;;;;18.17;8.87;;;3.80;89.10;;;;;;5093271;28;20111;-64
2021/03/04 03:07:31;;;;;;;17.87;9.23;;;3.80;89.00;;;;;;5093089;28;20513;-65
2021/03/04 03:09:58;;;;;;;19.93;9.60;;;3.80;89.20;;;;;;5093035;28;20051;-65
2021/03/04 03:12:24;;;;;;;17.30;9.30;;;3.90;88.90;;;;;;5075226;28;20491;-64
2021/03/04 03:14:50;;;;;;;16.30;8.30;;;3.80;88.80;;;;;;5093738;28;20042;-64
2021/03/04 03:17:16;;;;;;;16.93;8.63;;;3.90;89.00;;;;;;5093324;28;20044;-64
2021/03/04 03:19:41;;;;;;;17.13;8.53;;;3.90;88.90;;;;;;5075499;28;20032;-65
2021/03/04 03:22:07;;;;;;;16.50;8.40;;;3.90;89.00;;;;;;5093218;28;20511;-64
2021/03/04 03:24:33;;;;;;;14.70;7.53;;;3.90;88.60;;;;;;5093015;28;20044;-64
2021/03/04 03:26:59;;;;;;;14.00;7.87;;;3.90;88.80;;;;;;5093545;28;20530;-64
2021/03/04 03:29:25;;;;;;;14.37;7.43;;;3.90;88.50;;;;;;5092708;28;20044;-64
2021/03/04 03:31:52;;;;;;;12.40;6.87;;;3.90;88.70;;;;;;5093021;28;20039;-64
2021/03/04 03:34:18;;;;;;;13.50;7.37;;;3.90;88.60;;;;;;5075392;28;20067;-65
2021/03/04 03:36:44;;;;;;;14.67;7.20;;;3.90;88.80;;;;;;5092642;28;20487;-64
2021/03/04 03:39:10;;;;;;;13.63;6.97;;;3.90;89.30;;;;;;5093139;28;20044;-65
2021/03/04 03:41:39;;;;;;;13.67;6.90;;;3.90;88.80;;;;;;5074428;28;20377;-65
2021/03/04 03:44:08;;;;;;;12.20;6.97;;;3.90;88.90;;;;;;5075415;28;20046;-65
2021/03/04 03:46:36;;;;;;;11.83;5.93;;;4.00;88.70;;;;;;5093044;28;20047;-64
2021/03/04 03:49:06;;;;;;;13.37;6.27;;;4.00;88.50;;;;;;5092461;28;20384;-64
2021/03/04 03:51:34;;;;;;;11.15;6.10;;;3.90;88.40;;;;;;5074533;28;20040;-65
2021/03/04 03:54:01;;;;;;;10.33;5.63;;;3.90;88.30;;;;;;5092131;28;20126;-64
2021/03/04 03:56:28;;;;;;;12.10;5.73;;;3.90;88.40;;;;;;5092680;28;20028;-64
2021/03/04 03:58:55;;;;;;;14.93;5.93;;;3.90;88.30;;;;;;5092407;28;20028;-64
2021/03/04 04:01:21;;;;;;;10.77;5.63;;;3.80;88.60;;;;;;5074468;28;20043;-64
2021/03/04 04:03:47;;;;;;;10.20;5.00;;;3.90;88.90;;;;;;5074894;28;20028;-64
2021/03/04 04:06:12;;;;;;;10.53;5.30;;;3.90;88.70;;;;;;5073977;28;20043;-64
2021/03/04 04:08:38;;;;;;;10.07;5.23;;;4.00;88.70;;;;;;5092510;28;20044;-65
2021/03/04 04:11:04;;;;;;;10.43;5.00;;;4.10;88.60;;;;;;5091657;28;20043;-64
2021/03/04 04:13:30;;;;;;;9.77;4.80;;;4.10;88.40;;;;;;5092225;28;20044;-65
2021/03/04 04:15:55;;;;;;;10.50;4.87;;;4.10;87.90;;;;;;5075239;28;20032;-65
2021/03/04 04:18:22;;;;;;;9.60;4.90;;;4.10;87.80;;;;;;5091636;28;20484;-65
2021/03/04 04:20:49;;;;;;;10.90;4.63;;;4.10;88.20;;;;;;5073548;28;20028;-65
2021/03/04 04:23:15;;;;;;;11.43;5.10;;;4.10;88.20;;;;;;5074142;28;20043;-65
2021/03/04 04:25:49;;;;;;;11.20;4.90;;;4.10;87.90;;;;;;5073727;28;20035;-64
2021/03/04 04:28:16;;;;;;;9.40;5.00;;;4.10;87.90;;;;;;5092029;28;20036;-64
2021/03/04 04:30:41;;;;;;;9.83;4.63;;;4.10;87.70;;;;;;5091382;28;20036;-65
2021/03/04 04:33:07;;;;;;;10.63;4.80;;;4.10;87.50;;;;;;5074016;28;20395;-65
2021/03/04 04:35:33;;;;;;;10.57;4.77;;;4.10;87.60;;;;;;5056926;28;20040;-65
2021/03/04 04:37:58;;;;;;;9.53;4.60;;;4.10;87.70;;;;;;5092059;28;20028;-65
2021/03/04 04:40:24;;;;;;;9.33;4.70;;;4.10;87.70;;;;;;5073773;28;20438;-65
2021/03/04 04:42:50;;;;;;;10.63;4.80;;;4.20;87.60;;;;;;5091030;28;20415;-64
2021/03/04 04:45:15;;;;;;;11.60;4.90;;;4.20;87.50;;;;;;5073966;28;20036;-64
2021/03/04 04:47:41;;;;;;;13.37;4.77;;;4.20;87.00;;;;;;5091999;28;20028;-64
2021/03/04 04:50:07;;;;;;;10.77;5.03;;;4.20;87.10;;;;;;5090773;28;20390;-64
2021/03/04 04:52:33;;;;;;;9.50;5.00;;;4.20;87.20;;;;;;5073703;28;20036;-64
2021/03/04 04:54:59;;;;;;;9.37;4.73;;;4.20;87.10;;;;;;5073255;28;20109;-65
2021/03/04 04:57:25;;;;;;;12.63;5.43;;;4.20;87.00;;;;;;5091919;28;20077;-65
2021/03/04 04:59:51;;;;;;;12.10;4.77;;;4.20;87.00;;;;;;5091462;28;20074;-64
2021/03/04 05:02:16;;;;;;;9.40;4.73;;;4.20;86.80;;;;;;5090952;28;20028;-65
2021/03/04 05:04:42;;;;;;;10.33;4.80;;;4.20;86.80;;;;;;5073593;28;20399;-64
2021/03/04 05:07:08;;;;;;;10.43;5.03;;;4.20;86.70;;;;;;5091039;28;20036;-64
2021/03/04 05:09:33;;;;;;;10.90;4.63;;;4.20;86.60;;;;;;5073493;28;20047;-64
2021/03/04 05:11:59;;;;;;;10.40;4.97;;;4.20;86.70;;;;;;5091292;28;20043;-65
2021/03/04 05:14:25;;;;;;;10.43;5.20;;;4.20;86.80;;;;;;5090980;28;20036;-64
2021/03/04 05:16:50;;;;;;;10.73;4.60;;;4.20;86.80;;;;;;5073540;28;20025;-64
2021/03/04 05:19:16;;;;;;;8.20;4.70;;;4.20;86.60;;;;;;5091285;28;20063;-64
2021/03/04 05:21:41;;;;;;;9.20;4.90;;;4.20;86.50;;;;;;5090316;28;20040;-64
2021/03/04 05:24:07;;;;;;;8.97;4.47;;;4.30;86.70;;;;;;5091280;28;20047;-64
2021/03/04 05:26:36;;;;;;;8.27;4.37;;;4.30;86.70;;;;;;5056193;28;20062;-64
2021/03/04 05:29:03;;;;;;;10.10;4.90;;;4.30;86.40;;;;;;5091239;28;20411;-64
2021/03/04 05:31:28;;;;;;;9.57;4.57;;;4.30;86.20;;;;;;5072645;28;20138;-64
2021/03/04 05:33:54;;;;;;;11.63;5.20;;;4.30;86.00;;;;;;5090779;28;20461;-64
2021/03/04 05:36:20;;;;;;;11.93;5.00;;;4.30;86.10;;;;;;5091120;28;20097;-64
2021/03/04 05:38:45;;;;;;;11.57;4.60;;;4.30;86.00;;;;;;5090521;28;20476;-64
2021/03/04 05:41:11;;;;;;;8.13;4.50;;;4.30;86.10;;;;;;5072825;28;20037;-64
2021/03/04 05:43:37;;;;;;;8.93;4.67;;;4.30;86.00;;;;;;5091255;28;20044;-64
2021/03/04 05:46:04;;;;;;;9.93;4.77;;;4.30;86.00;;;;;;5090412;28;20400;-64
2021/03/04 05:48:33;;;;;;;8.90;4.90;;;4.30;86.00;;;;;;5090806;28;20082;-64
2021/03/04 05:51:00;;;;;;;8.60;4.43;;;4.30;86.00;;;;;;5090066;28;20032;-64
2021/03/04 05:53:25;;;;;;;8.93;4.57;;;4.40;85.90;;;;;;5090989;28;20493;-64
2021/03/04 05:55:51;;;;;;;8.43;4.57;;;4.40;85.80;;;;;;5073135;28;20111;-64
2021/03/04 05:58:17;;;;;;;10.20;4.50;;;4.40;85.70;;;;;;5072480;28;20120;-64
2021/03/04 06:00:44;;;;;;;7.77;4.10;;;4.40;85.70;;;;;;5090699;28;20082;-64
2021/03/04 06:03:12;;;;;;;9.27;4.70;;;4.40;85.70;;;;;;5090112;28;20103;-64
2021/03/04 06:05:39;;;;;;;9.80;4.30;;;4.40;85.60;;;;;;5072933;28;20111;-64
2021/03/04 06:08:07;;;;;;;8.63;4.47;;;4.40;85.60;;;;;;5090804;28;20111;-64
2021/03/04 06:10:33;;;;;;;9.63;4.40;;;4.40;85.60;;;;;;5072189;28;20511;-64
2021/03/04 06:12:59;;;;;;;9.37;4.43;;;4.40;85.60;;;;;;5090709;28;20105;-64
2021/03/04 06:15:27;;;;;;;12.13;4.40;;;4.40;85.30;;;;;;5090647;28;20085;-64
2021/03/04 06:17:57;;;;;;;9.90;4.40;;;4.40;85.30;;;;;;5090202;28;20043;-64
2021/03/04 06:20:24;;;;;;;9.40;4.38;;;4.30;85.50;;;;;;5072674;28;20043;-64
2021/03/04 06:22:50;;;;;;;8.97;3.63;;;4.40;85.70;;;;;;5090043;28;20032;-64
2021/03/04 06:25:17;;;;;;;10.37;4.03;;;4.40;85.30;;;;;;5090932;28;20070;-64
2021/03/04 06:27:48;;;;;;;7.90;3.80;;;4.40;85.30;;;;;;5090137;28;20040;-64
2021/03/04 06:30:16;;;;;;;8.40;3.93;;;4.40;85.30;;;;;;5090407;28;20039;-64
2021/03/04 06:32:57;;;;;;;9.07;3.80;;;4.40;85.30;;;;;;5089771;28;20089;-64
2021/03/04 06:35:28;;;;;;;7.67;3.60;;;4.50;85.40;;;;;;5090745;28;20047;-64
2021/03/04 06:37:54;;;;;;;10.30;3.57;;;4.50;85.00;;;;;;5090318;28;20495;-64
2021/03/04 06:40:30;;;;;;;9.97;3.50;;;4.50;85.00;;;;;;5072511;28;20043;-64
2021/03/04 06:42:56;;;;;;;8.33;3.70;;;4.50;84.80;;;;;;5073824;28;20058;-65
2021/03/04 06:45:32;;;;;;;7.97;3.40;;;4.50;84.80;;;;;;5094246;28;20479;-65
2021/03/04 06:48:12;;;;;;;7.10;3.30;;;4.50;84.90;;;;;;5094151;28;20039;-65
2021/03/04 06:50:40;;;;;;;9.10;3.90;;;4.60;84.90;;;;;;5094057;28;20066;-65
2021/03/04 06:53:22;;;;;;;9.77;3.70;;;4.60;85.00;;;;;;5100556;28;20404;-65
2021/03/04 06:56:03;;;;;;;8.50;3.47;;;4.60;85.00;;;;;;5105356;28;20036;-65
2021/03/04 06:58:33;;;;;;;8.80;3.40;;;4.70;84.80;;;;;;5094046;28;20044;-65
2021/03/04 07:01:02;;;;;;;9.00;3.80;;;4.70;84.80;;;;;;5088962;28;20055;-65
2021/03/04 07:03:46;;;;;;;10.70;3.77;;;4.80;84.70;;;;;;5085644;28;20119;-64
2021/03/04 07:06:13;;;;;;;8.83;3.70;;;4.80;84.60;;;;;;5094052;28;20032;-65
2021/03/04 07:08:42;;;;;;;10.57;3.30;;;4.80;84.30;;;;;;5094112;28;20044;-65
2021/03/04 07:11:19;;;;;;;9.53;3.07;;;4.80;84.10;;;;;;5090332;28;20048;-65
2021/03/04 07:13:46;;;;;;;11.50;3.77;;;4.80;84.20;;;;;;5089701;28;20047;-65
2021/03/04 07:16:27;;;;;;;9.20;3.50;;;4.80;84.00;;;;;;5089670;28;20127;-64
2021/03/04 07:19:00;;;;;;;7.78;3.38;;;4.80;83.90;;;;;;5084028;28;20039;-65
2021/03/04 07:21:28;;;;;;;6.97;3.00;;;4.80;84.10;;;;;;5088354;28;20504;-65
2021/03/04 07:23:54;;;;;;;7.20;3.20;;;4.80;84.10;;;;;;5084990;28;20055;-65
2021/03/04 07:26:20;;;;;;;8.47;3.13;;;4.80;84.30;;;;;;5074380;28;20479;-65
2021/03/04 07:28:47;;;;;;;7.27;3.70;;;4.90;84.20;;;;;;5075328;28;20055;-65
2021/03/04 07:31:15;;;;;;;9.07;3.30;;;4.90;83.80;;;;;;5073075;28;20083;-64
2021/03/04 07:33:49;;;;;;;8.97;3.00;;;4.90;83.50;;;;;;5085369;28;20044;-65
2021/03/04 07:36:19;;;;;;;9.67;3.00;;;4.90;83.80;;;;;;5069969;28;20036;-64
2021/03/04 07:38:59;;;;;;;10.07;3.22;;;4.90;83.80;;;;;;5086027;28;20032;-64
2021/03/04 07:41:39;;;;;;;7.73;3.10;;;5.00;83.70;;;;;;5080760;28;20040;-64
2021/03/04 07:44:06;;;;;;;11.97;3.50;;;5.10;83.50;;;;;;5055135;28;20047;-64
2021/03/04 07:46:36;;;;;;;8.70;3.20;;;5.10;83.30;;;;;;5073001;28;20040;-65
2021/03/04 07:49:04;;;;;;;8.07;3.05;;;5.00;83.20;;;;;;5072256;28;20044;-65
2021/03/04 07:51:42;;;;;;;9.70;3.33;;;5.10;83.70;;;;;;5083766;28;20044;-65
2021/03/04 07:54:08;;;;;;;9.00;3.10;;;5.10;84.10;;;;;;5090454;28;20047;-65
2021/03/04 07:56:34;;;;;;;9.73;3.20;;;5.10;83.40;;;;;;5092616;28;20113;-64
2021/03/04 07:59:14;;;;;;;9.40;3.50;;;5.10;83.40;;;;;;5091672;28;20063;-63
2021/03/04 08:01:54;;;;;;;8.73;2.80;;;5.20;83.10;;;;;;5056700;28;20036;-63
2021/03/04 08:04:25;;;;;;;6.60;3.10;;;5.20;83.20;;;;;;5084256;28;20050;-63
2021/03/04 08:06:51;;;;;;;11.15;3.05;;;5.20;83.20;;;;;;5092968;28;20062;-64
2021/03/04 08:09:34;;;;;;;7.67;3.10;;;5.30;83.50;;;;;;5092698;28;20043;-62
2021/03/04 08:12:10;;;;;;;11.33;3.00;;;5.40;83.40;;;;;;5092105;28;20036;-64
2021/03/04 08:14:39;;;;;;;6.73;3.00;;;5.50;83.30;;;;;;5074004;28;20044;-64
2021/03/04 08:17:05;;;;;;;6.37;2.90;;;5.50;83.00;;;;;;5092603;28;20123;-63
2021/03/04 08:19:31;;;;;;;9.07;2.73;;;5.60;82.90;;;;;;5058195;28;20036;-63
2021/03/04 08:22:02;;;;;;;7.80;2.97;;;5.60;82.80;;;;;;5091868;28;20032;-64
2021/03/04 08:24:28;;;;;;;8.02;3.15;;;5.70;82.40;;;;;;5092553;28;20044;-63
2021/03/04 08:26:59;;;;;;;9.43;2.80;;;5.60;81.90;;;;;;5091807;28;20052;-63
2021/03/04 08:29:25;;;;;;;9.90;3.10;;;5.60;82.20;;;;;;5068610;28;20071;-63
2021/03/04 08:31:54;;;;;;;10.00;3.47;;;5.60;82.30;;;;;;5076967;28;20039;-67
2021/03/04 08:34:21;;;;;;;10.00;3.27;;;5.60;82.20;;;;;;5086401;28;20029;-62
2021/03/04 08:36:50;;;;;;;11.07;3.13;;;5.70;82.10;;;;;;5086138;28;20115;-64
2021/03/04 08:39:19;;;;;;;11.40;2.93;;;5.70;81.90;;;;;;5091088;28;20037;-64
2021/03/04 08:41:45;;;;;;;9.37;2.93;;;5.80;82.00;;;;;;5098473;22;20042;-66
2021/03/04 08:44:13;;;;;;;8.93;2.90;;;5.80;82.00;;;;;;5070546;28;20040;-66
2021/03/04 08:46:40;;;;;;;11.73;3.17;;;5.80;81.80;;;;;;5053202;28;20404;-66
2021/03/04 08:49:06;;;;;;;9.63;2.87;;;5.90;81.80;;;;;;5053557;28;20478;-67
2021/03/04 08:51:41;;;;;;;8.67;2.90;;;5.90;81.70;;;;;;5053292;28;20049;-66
2021/03/04 08:54:07;;;;;;;9.43;2.70;;;6.00;81.40;;;;;;5071837;28;20120;-66
2021/03/04 08:56:33;;;;;;;10.87;2.70;;;6.00;81.20;;;;;;5071184;28;20595;-66
2021/03/04 08:58:59;;;;;;;8.93;3.20;;;6.00;81.10;;;;;;5054426;28;20047;-66
2021/03/04 09:01:29;;;;;;;9.67;3.07;;;6.00;81.20;;;;;;5071436;28;20047;-66
2021/03/04 09:03:55;;;;;;;;;;;6.10;81.30;;;;;;5054401;28;20033;-66
2021/03/04 09:06:21;;;;;;;7.73;2.67;;;6.10;81.50;;;;;;5071341;28;19913;-67
2021/03/04 09:08:49;;;;;;;8.00;2.67;;;6.20;81.50;;;;;;5053619;28;20420;-69
2021/03/04 09:11:28;;;;;;;9.20;2.83;;;6.20;80.60;;;;;;5054068;28;20438;-67
2021/03/04 09:14:05;;;;;;;12.93;3.13;;;6.20;80.60;;;;;;5053621;28;20029;-70
2021/03/04 09:16:57;;;;;;;9.90;2.90;;;6.20;80.90;;;;;;5053986;28;20032;-63
2021/03/04 09:19:31;;;;;;;9.83;3.00;;;6.30;81.30;;;;;;5049498;28;20036;-62
2021/03/04 09:22:04;;;;;;;12.60;3.00;;;6.40;80.80;;;;;;5053193;28;20079;-63
2021/03/04 09:24:32;;;;;;;8.30;2.70;;;6.50;80.60;;;;;;5052962;28;20110;-63
2021/03/04 09:27:02;;;;;;;9.50;2.73;;;6.50;80.80;;;;;;5053423;28;20111;-72
2021/03/04 09:29:28;;;;;;;8.18;2.75;;;6.70;80.70;;;;;;5052700;28;20044;-66
2021/03/04 09:31:55;;;;;;;11.03;3.37;;;6.70;80.30;;;;;;5035328;28;20036;-66
2021/03/04 09:34:53;;;;;;;9.47;2.80;;;6.70;79.90;;;;;;5052434;28;20051;-66
2021/03/04 09:37:25;;;;;;;10.37;2.60;;;6.80;79.60;;;;;;5018894;28;20032;-66
2021/03/04 09:39:55;;;;;;;8.70;2.43;;;6.70;79.90;;;;;;5051875;28;20043;-66
2021/03/04 09:42:34;;;;;;;13.10;2.90;;;6.80;79.70;;;;;;5069594;28;20068;-67
2021/03/04 09:45:07;;;;;;;11.07;2.80;;;6.80;79.60;;;;;;5070844;28;20051;-66
2021/03/04 09:47:34;;;;;;;11.83;2.97;;;6.90;79.80;;;;;;5052844;28;20033;-66
2021/03/04 09:50:03;;;;;;;9.33;2.67;;;6.90;79.30;;;;;;5070348;28;20040;-65
2021/03/04 09:52:31;;;;;;;8.27;2.90;;;6.90;79.60;;;;;;5070082;28;20068;-66
2021/03/04 09:55:09;;;;;;;11.10;2.80;;;7.00;79.30;;;;;;5071092;28;20044;-66
2021/03/04 09:57:40;;;;;;;8.30;2.77;;;7.10;79.40;;;;;;5052169;28;20048;-65
2021/03/04 10:00:15;;;;;;;10.27;3.00;;;7.10;79.10;;;;;;5069187;28;20094;-66
2021/03/04 10:02:42;;;;;;;10.20;3.17;;;7.20;79.30;;;;;;5051842;28;20041;-69
2021/03/04 10:05:16;;;;;;;12.20;2.70;;;7.40;79.20;;;;;;5052321;28;20036;-66
2021/03/04 10:07:43;;;;;;;10.10;2.77;;;7.40;78.60;;;;;;5059282;28;20063;-66
2021/03/04 10:10:14;;;;;;;10.00;3.10;;;7.50;78.60;;;;;;5058109;28;20071;-66
2021/03/04 10:12:50;;;;;;;13.20;3.20;;;7.50;78.50;;;;;;5057667;28;20048;-66
2021/03/04 10:15:36;;;;;;;9.40;2.80;;;7.60;78.40;;;;;;5042712;28;20048;-66
2021/03/04 10:18:22;;;;;;;10.80;2.93;;;7.60;77.60;;;;;;5061403;28;20128;-67
2021/03/04 10:20:48;;;;;;;12.37;3.07;;;7.60;77.80;;;;;;5063882;28;20040;-66
2021/03/04 10:23:15;;;;;;;13.30;2.83;;;7.70;77.70;;;;;;5064320;28;20391;-67
2021/03/04 10:25:42;;;;;;;14.93;3.03;;;7.70;77.40;;;;;;5045716;28;20033;-67
2021/03/04 10:28:09;;;;;;;8.87;2.80;;;7.70;77.10;;;;;;5062966;28;20044;-66
2021/03/04 10:30:37;;;;;;;10.93;3.10;;;7.70;76.70;;;;;;5064609;28;20496;-67
2021/03/04 10:33:04;;;;;;;11.27;3.10;;;7.60;76.50;;;;;;5045573;28;20120;-67
2021/03/04 10:35:31;;;;;;;10.80;3.23;;;7.60;76.60;;;;;;5044449;28;20025;-67
2021/03/04 10:37:56;;;;;;;9.97;3.00;;;7.60;76.90;;;;;;5062643;28;20501;-67
2021/03/04 10:40:22;;;;;;;8.33;2.90;;;7.60;76.90;;;;;;5045095;28;20028;-67
2021/03/04 10:42:49;;;;;;;13.60;3.53;;;7.70;77.00;;;;;;5038110;28;20047;-66
2021/03/04 10:45:16;;;;;;;10.87;2.90;;;7.70;76.80;;;;;;5063734;28;20500;-66
2021/03/04 10:47:43;;;;;;;11.30;2.97;;;7.70;76.50;;;;;;5044056;28;20024;-66
2021/03/04 10:50:12;;;;;;;11.33;2.80;;;7.70;76.80;;;;;;5046125;28;20132;-66
2021/03/04 10:52:38;;;;;;;11.43;2.90;;;7.80;76.50;;;;;;5044924;28;20044;-66
2021/03/04 10:55:07;;;;;;;10.63;2.73;;;7.80;76.20;;;;;;5047473;28;20127;-65
2021/03/04 10:57:32;;;;;;;10.27;2.90;;;7.80;76.30;;;;;;5064105;28;20060;-65
2021/03/04 10:59:58;;;;;;;12.70;2.90;;;7.90;76.10;;;;;;5044433;28;20053;-66
2021/03/04 11:02:23;;;;;;;9.60;2.90;;;7.90;75.90;;;;;;5044967;28;20036;-69
2021/03/04 11:04:49;;;;;;;13.50;3.33;;;8.00;75.50;;;;;;5063830;28;20047;-67
2021/03/04 11:07:15;;;;;;;18.73;3.20;;;7.90;75.30;;;;;;5046186;28;20389;-66
2021/03/04 11:09:41;;;;;;;14.87;3.17;;;7.90;75.30;;;;;;5063699;28;20044;-66
2021/03/04 11:12:07;;;;;;;12.30;2.90;;;7.90;75.10;;;;;;5045980;28;20044;-65
2021/03/04 11:14:33;;;;;;;8.80;2.50;;;7.90;75.50;;;;;;5045134;28;20035;-66
2021/03/04 11:16:59;;;;;;;10.10;2.57;;;8.00;75.60;;;;;;5046062;28;20559;-66
2021/03/04 11:19:25;;;;;;;13.63;2.93;;;8.10;75.30;;;;;;5062089;28;20041;-66
2021/03/04 11:21:51;;;;;;;12.47;3.00;;;8.20;75.10;;;;;;5063721;28;20032;-66
2021/03/04 11:24:17;;;;;;;12.67;2.93;;;8.30;75.10;;;;;;5044911;28;20512;-67
2021/03/04 11:26:43;;;;;;;11.67;2.87;;;8.40;74.90;;;;;;5028133;28;20037;-66
2021/03/04 11:29:10;;;;;;;13.20;2.90;;;8.50;74.20;;;;;;5063580;28;20060;-66
2021/03/04 11:31:36;;;;;;;11.23;3.07;;;8.50;73.80;;;;;;5044341;28;20035;-66
2021/03/04 11:34:03;;;;;;;11.40;2.70;;;8.50;73.60;;;;;;5044264;28;20036;-66
2021/03/04 11:36:32;;;;;;;9.23;2.60;;;8.50;73.60;;;;;;5063103;28;20056;-66
2021/03/04 11:38:58;;;;;;;11.73;3.00;;;8.60;73.60;;;;;;5062505;28;20508;-66
2021/03/04 11:41:24;;;;;;;13.10;2.73;;;8.70;74.00;;;;;;5043073;28;20060;-66
2021/03/04 11:43:50;;;;;;;11.67;2.97;;;8.90;73.60;;;;;;5063809;28;20111;-66
2021/03/04 11:46:17;;;;;;;12.10;2.80;;;9.00;73.50;;;;;;5062533;28;20044;-66
2021/03/04 11:48:45;;;;;;;11.17;2.80;;;9.20;73.20;;;;;;5061292;28;20063;-67
2021/03/04 11:51:11;;;;;;;12.57;3.00;;;9.20;72.50;;;;;;5060864;28;20036;-66
2021/03/04 11:53:37;;;;;;;13.30;3.13;;;9.20;71.60;;;;;;5044702;28;20469;-62
2021/03/04 11:56:03;;;;;;;10.73;2.83;;;9.20;71.60;;;;;;5044728;28;20087;-62
2021/03/04 11:58:29;;;;;;;12.07;3.00;;;9.20;71.30;;;;;;5063279;28;20480;-62
2021/03/04 12:00:55;;;;;;;14.50;3.30;;;9.20;71.70;;;;;;5031612;28;20036;-62
2021/03/04 12:03:22;;;;;;;9.83;2.90;;;9.30;71.50;;;;;;5062849;28;20040;-63
2021/03/04 12:05:49;;;;;;;12.87;3.50;;;9.40;71.50;;;;;;5060204;28;20052;-73
2021/03/04 12:08:15;;;;;;;13.63;3.40;;;9.40;70.90;;;;;;5044934;28;20028;-73
2021/03/04 12:10:42;;;;;;;11.80;3.13;;;9.40;70.40;;;;;;5059926;28;20037;-73
2021/03/04 12:13:08;;;;;;;10.40;3.60;;;9.40;70.40;;;;;;5062444;28;20033;-73
2021/03/04 12:15:34;;;;;;;12.07;3.70;;;9.40;70.20;;;;;;5043583;28;20037;-73
2021/03/04 12:18:00;;;;;;;16.85;4.00;;;9.30;70.30;;;;;;5045717;28;20048;-73
2021/03/04 12:20:25;;;;;;;14.30;6.25;;;9.40;70.00;;;;;;5060317;28;20045;-73
2021/03/04 12:22:51;;;;;;;12.30;4.43;;;9.40;69.50;;;;;;5044868;28;20062;-73
2021/03/04 12:25:17;;;;;;;16.65;4.45;;;9.40;69.30;;;;;;5061685;28;20047;-73
2021/03/04 12:27:43;;;;;;;11.30;4.10;;;9.30;69.60;;;;;;5060650;28;20033;-73
2021/03/04 12:30:10;;;;;;;12.27;4.23;;;9.40;69.70;;;;;;5062351;28;20063;-73
2021/03/04 12:32:36;;;;;;;14.30;4.30;;;9.40;69.30;;;;;;5060492;28;20091;-72
2021/03/04 12:35:03;;;;;;;10.60;3.97;;;9.40;69.00;;;;;;5061185;28;20483;-73
2021/03/04 12:37:29;;;;;;;12.40;4.20;;;9.30;68.40;;;;;;5041742;28;20056;-73
2021/03/04 12:39:54;;;;;;;12.75;4.40;;;9.30;68.30;;;;;;5061187;28;20079;-73
2021/03/04 12:42:20;;;;;;;13.53;5.10;;;9.20;68.00;;;;;;5062093;28;20507;-63
2021/03/04 12:44:46;;;;;;;12.43;4.47;;;9.10;67.90;;;;;;5025722;28;20033;-66
2021/03/04 12:47:12;;;;;;;13.57;5.17;;;9.00;68.00;;;;;;5063565;28;20151;-66
2021/03/04 12:49:37;;;;;;;11.97;4.30;;;8.90;68.10;;;;;;5059358;28;20045;-66
2021/03/04 12:52:03;;;;;;;12.50;4.57;;;8.80;67.80;;;;;;5059640;28;20036;-66